sensor_id;sensor_type;location;lat;lon;timestamp;P1;durP1;ratioP1;P2;durP2;ratioP2
15451;SDS011;7827;53.594;9.938;2023-04-15T00:00:56;9.57;;;5.90;;
15451;SDS011;7827;53.594;9.938;2023-04-15T00:03:25;6.63;;;5.90;;
15451;SDS011;7827;53.594;9.938;2023-04-15T00:05:54;6.60;;;5.57;;
15451;SDS011;7827;53.594;9.938;2023-04-15T00:08:22;6.67;;;5.27;;
15451;SDS011;7827;53.594;9.938;2023-04-15T00:10:51;6.53;;;5.80;;
15451;SDS011;7827;53.594;9.938;2023-04-15T00:13:20;7.93;;;5.57;;
15451;SDS011;7827;53.594;9.938;2023-04-15T00:15:48;8.07;;;5.87;;
15451;SDS011;7827;53.594;9.938;2023-04-15T00:18:18;7.27;;;5.30;;
15451;SDS011;7827;53.594;9.938;2023-04-15T00:20:47;6.60;;;5.90;;
15451;SDS011;7827;53.594;9.938;2023-04-15T00:23:15;6.47;;;5.53;;
15451;SDS011;7827;53.594;9.938;2023-04-15T00:25:43;6.60;;;5.47;;
15451;SDS011;7827;53.594;9.938;2023-04-15T00:28:12;8.00;;;5.90;;
15451;SDS011;7827;53.594;9.938;2023-04-15T00:30:41;6.20;;;5.35;;
15451;SDS011;7827;53.594;9.938;2023-04-15T00:33:09;7.20;;;5.93;;
15451;SDS011;7827;53.594;9.938;2023-04-15T00:35:40;7.80;;;6.45;;
15451;SDS011;7827;53.594;9.938;2023-04-15T00:38:08;7.30;;;6.00;;
15451;SDS011;7827;53.594;9.938;2023-04-15T00:40:37;7.50;;;6.38;;
15451;SDS011;7827;53.594;9.938;2023-04-15T00:43:06;7.33;;;6.00;;
15451;SDS011;7827;53.594;9.938;2023-04-15T00:45:34;7.03;;;5.93;;
15451;SDS011;7827;53.594;9.938;2023-04-15T00:48:03;10.03;;;7.10;;
15451;SDS011;7827;53.594;9.938;2023-04-15T00:50:32;7.03;;;6.10;;
15451;SDS011;7827;53.594;9.938;2023-04-15T00:53:02;7.40;;;6.43;;
15451;SDS011;7827;53.594;9.938;2023-04-15T00:55:31;8.67;;;6.90;;
15451;SDS011;7827;53.594;9.938;2023-04-15T00:57:59;9.07;;;6.80;;
15451;SDS011;7827;53.594;9.938;2023-04-15T01:00:28;11.30;;;7.50;;
15451;SDS011;7827;53.594;9.938;2023-04-15T01:02:57;9.27;;;7.60;;
15451;SDS011;7827;53.594;9.938;2023-04-15T01:05:26;10.50;;;8.03;;
15451;SDS011;7827;53.594;9.938;2023-04-15T01:07:55;9.30;;;7.27;;
15451;SDS011;7827;53.594;9.938;2023-04-15T01:10:25;9.67;;;7.33;;
15451;SDS011;7827;53.594;9.938;2023-04-15T01:12:53;8.80;;;7.40;;
15451;SDS011;7827;53.594;9.938;2023-04-15T01:15:24;9.07;;;7.97;;
15451;SDS011;7827;53.594;9.938;2023-04-15T01:17:52;10.10;;;8.32;;
15451;SDS011;7827;53.594;9.938;2023-04-15T01:20:21;9.47;;;8.07;;
15451;SDS011;7827;53.594;9.938;2023-04-15T01:22:49;9.87;;;7.87;;
15451;SDS011;7827;53.594;9.938;2023-04-15T01:25:18;9.60;;;7.73;;
15451;SDS011;7827;53.594;9.938;2023-04-15T01:27:57;10.03;;;8.77;;
15451;SDS011;7827;53.594;9.938;2023-04-15T01:30:26;10.10;;;8.20;;
15451;SDS011;7827;53.594;9.938;2023-04-15T01:32:54;11.37;;;9.07;;
15451;SDS011;7827;53.594;9.938;2023-04-15T01:35:41;12.95;;;8.23;;
15451;SDS011;7827;53.594;9.938;2023-04-15T01:38:10;10.65;;;9.05;;
15451;SDS011;7827;53.594;9.938;2023-04-15T01:40:40;10.90;;;8.50;;
15451;SDS011;7827;53.594;9.938;2023-04-15T01:43:09;10.13;;;8.55;;
15451;SDS011;7827;53.594;9.938;2023-04-15T01:45:37;14.00;;;8.50;;
15451;SDS011;7827;53.594;9.938;2023-04-15T01:48:06;12.70;;;9.63;;
15451;SDS011;7827;53.594;9.938;2023-04-15T01:50:36;11.18;;;8.35;;
15451;SDS011;7827;53.594;9.938;2023-04-15T01:53:05;10.43;;;9.00;;
15451;SDS011;7827;53.594;9.938;2023-04-15T01:55:33;11.77;;;8.93;;
15451;SDS011;7827;53.594;9.938;2023-04-15T01:58:03;10.85;;;9.25;;
15451;SDS011;7827;53.594;9.938;2023-04-15T02:00:32;11.80;;;9.13;;
15451;SDS011;7827;53.594;9.938;2023-04-15T02:03:00;13.50;;;9.48;;
15451;SDS011;7827;53.594;9.938;2023-04-15T02:05:29;13.73;;;9.63;;
15451;SDS011;7827;53.594;9.938;2023-04-15T02:07:58;12.10;;;10.10;;
15451;SDS011;7827;53.594;9.938;2023-04-15T02:10:26;11.95;;;9.60;;
15451;SDS011;7827;53.594;9.938;2023-04-15T02:12:54;12.18;;;9.98;;
15451;SDS011;7827;53.594;9.938;2023-04-15T02:15:27;11.25;;;9.55;;
15451;SDS011;7827;53.594;9.938;2023-04-15T02:17:56;12.63;;;9.13;;
15451;SDS011;7827;53.594;9.938;2023-04-15T02:20:26;12.03;;;9.07;;
15451;SDS011;7827;53.594;9.938;2023-04-15T02:22:56;13.00;;;9.63;;
15451;SDS011;7827;53.594;9.938;2023-04-15T02:25:25;12.60;;;9.67;;
15451;SDS011;7827;53.594;9.938;2023-04-15T02:27:53;12.20;;;9.37;;
15451;SDS011;7827;53.594;9.938;2023-04-15T02:30:24;10.85;;;9.23;;
15451;SDS011;7827;53.594;9.938;2023-04-15T02:32:54;13.00;;;10.17;;
15451;SDS011;7827;53.594;9.938;2023-04-15T02:35:24;12.20;;;9.20;;
15451;SDS011;7827;53.594;9.938;2023-04-15T02:37:53;12.17;;;9.97;;
15451;SDS011;7827;53.594;9.938;2023-04-15T02:40:22;12.70;;;9.73;;
15451;SDS011;7827;53.594;9.938;2023-04-15T02:42:50;12.85;;;9.73;;
15451;SDS011;7827;53.594;9.938;2023-04-15T02:45:19;12.60;;;9.50;;
15451;SDS011;7827;53.594;9.938;2023-04-15T02:47:49;12.10;;;9.27;;
15451;SDS011;7827;53.594;9.938;2023-04-15T02:50:19;13.85;;;10.35;;
15451;SDS011;7827;53.594;9.938;2023-04-15T02:52:49;13.05;;;10.20;;
15451;SDS011;7827;53.594;9.938;2023-04-15T02:55:18;12.87;;;10.57;;
15451;SDS011;7827;53.594;9.938;2023-04-15T02:57:46;12.57;;;9.97;;
15451;SDS011;7827;53.594;9.938;2023-04-15T03:00:15;13.93;;;10.70;;
15451;SDS011;7827;53.594;9.938;2023-04-15T03:02:45;12.93;;;10.70;;
15451;SDS011;7827;53.594;9.938;2023-04-15T03:05:17;13.97;;;10.60;;
15451;SDS011;7827;53.594;9.938;2023-04-15T03:07:49;14.10;;;10.83;;
15451;SDS011;7827;53.594;9.938;2023-04-15T03:10:18;16.13;;;11.43;;
15451;SDS011;7827;53.594;9.938;2023-04-15T03:12:48;13.73;;;10.53;;
15451;SDS011;7827;53.594;9.938;2023-04-15T03:15:18;15.87;;;11.37;;
15451;SDS011;7827;53.594;9.938;2023-04-15T03:17:49;15.77;;;11.77;;
15451;SDS011;7827;53.594;9.938;2023-04-15T03:20:19;14.90;;;11.40;;
15451;SDS011;7827;53.594;9.938;2023-04-15T03:22:48;16.70;;;12.07;;
15451;SDS011;7827;53.594;9.938;2023-04-15T03:25:18;16.27;;;12.40;;
15451;SDS011;7827;53.594;9.938;2023-04-15T03:27:46;15.57;;;11.83;;
15451;SDS011;7827;53.594;9.938;2023-04-15T03:30:16;14.90;;;11.33;;
15451;SDS011;7827;53.594;9.938;2023-04-15T03:32:44;17.57;;;11.70;;
15451;SDS011;7827;53.594;9.938;2023-04-15T03:35:13;18.57;;;12.93;;
15451;SDS011;7827;53.594;9.938;2023-04-15T03:37:44;17.03;;;12.33;;
15451;SDS011;7827;53.594;9.938;2023-04-15T03:40:14;20.67;;;12.93;;
15451;SDS011;7827;53.594;9.938;2023-04-15T03:42:42;19.60;;;12.97;;
15451;SDS011;7827;53.594;9.938;2023-04-15T03:45:11;22.80;;;13.50;;
15451;SDS011;7827;53.594;9.938;2023-04-15T03:47:39;22.03;;;14.53;;
15451;SDS011;7827;53.594;9.938;2023-04-15T03:50:08;22.33;;;15.10;;
15451;SDS011;7827;53.594;9.938;2023-04-15T03:52:37;25.40;;;15.50;;
15451;SDS011;7827;53.594;9.938;2023-04-15T03:55:07;22.70;;;15.73;;
15451;SDS011;7827;53.594;9.938;2023-04-15T03:57:36;20.23;;;14.03;;
15451;SDS011;7827;53.594;9.938;2023-04-15T04:00:05;26.30;;;16.03;;
15451;SDS011;7827;53.594;9.938;2023-04-15T04:02:38;26.37;;;17.33;;
15451;SDS011;7827;53.594;9.938;2023-04-15T04:05:07;27.20;;;16.43;;
15451;SDS011;7827;53.594;9.938;2023-04-15T04:07:36;30.63;;;17.07;;
15451;SDS011;7827;53.594;9.938;2023-04-15T04:10:05;27.58;;;17.67;;
15451;SDS011;7827;53.594;9.938;2023-04-15T04:12:35;26.58;;;17.33;;
15451;SDS011;7827;53.594;9.938;2023-04-15T04:15:04;27.83;;;17.05;;
15451;SDS011;7827;53.594;9.938;2023-04-15T04:17:33;27.17;;;17.00;;
15451;SDS011;7827;53.594;9.938;2023-04-15T04:20:02;27.03;;;17.80;;
15451;SDS011;7827;53.594;9.938;2023-04-15T04:22:36;28.23;;;18.70;;
15451;SDS011;7827;53.594;9.938;2023-04-15T04:25:07;28.65;;;19.38;;
15451;SDS011;7827;53.594;9.938;2023-04-15T04:27:36;29.60;;;18.90;;
15451;SDS011;7827;53.594;9.938;2023-04-15T04:30:05;29.43;;;18.57;;
15451;SDS011;7827;53.594;9.938;2023-04-15T04:32:35;27.40;;;17.90;;
15451;SDS011;7827;53.594;9.938;2023-04-15T04:35:03;30.07;;;19.00;;
15451;SDS011;7827;53.594;9.938;2023-04-15T04:37:32;33.58;;;19.23;;
15451;SDS011;7827;53.594;9.938;2023-04-15T04:40:01;35.53;;;20.27;;
15451;SDS011;7827;53.594;9.938;2023-04-15T04:42:31;35.40;;;19.77;;
15451;SDS011;7827;53.594;9.938;2023-04-15T04:44:59;33.30;;;19.73;;
15451;SDS011;7827;53.594;9.938;2023-04-15T04:47:28;38.27;;;21.90;;
15451;SDS011;7827;53.594;9.938;2023-04-15T04:49:57;36.17;;;21.63;;
15451;SDS011;7827;53.594;9.938;2023-04-15T04:52:25;39.33;;;22.57;;
15451;SDS011;7827;53.594;9.938;2023-04-15T04:54:53;33.90;;;21.60;;
15451;SDS011;7827;53.594;9.938;2023-04-15T04:57:21;37.33;;;22.70;;
15451;SDS011;7827;53.594;9.938;2023-04-15T04:59:51;38.97;;;23.43;;
15451;SDS011;7827;53.594;9.938;2023-04-15T05:02:20;40.97;;;24.23;;
15451;SDS011;7827;53.594;9.938;2023-04-15T05:04:48;40.33;;;22.87;;
15451;SDS011;7827;53.594;9.938;2023-04-15T05:07:19;39.13;;;22.93;;
15451;SDS011;7827;53.594;9.938;2023-04-15T05:09:48;42.40;;;24.40;;
15451;SDS011;7827;53.594;9.938;2023-04-15T05:12:16;42.90;;;25.17;;
15451;SDS011;7827;53.594;9.938;2023-04-15T05:14:44;46.67;;;25.63;;
15451;SDS011;7827;53.594;9.938;2023-04-15T05:17:14;44.50;;;24.73;;
15451;SDS011;7827;53.594;9.938;2023-04-15T05:19:42;43.63;;;24.97;;
15451;SDS011;7827;53.594;9.938;2023-04-15T05:22:11;47.17;;;26.17;;
15451;SDS011;7827;53.594;9.938;2023-04-15T05:24:39;44.77;;;25.83;;
15451;SDS011;7827;53.594;9.938;2023-04-15T05:27:07;51.77;;;28.03;;
15451;SDS011;7827;53.594;9.938;2023-04-15T05:29:36;47.37;;;26.37;;
15451;SDS011;7827;53.594;9.938;2023-04-15T05:32:05;46.50;;;27.77;;
15451;SDS011;7827;53.594;9.938;2023-04-15T05:34:35;49.97;;;27.83;;
15451;SDS011;7827;53.594;9.938;2023-04-15T05:37:03;51.17;;;29.43;;
15451;SDS011;7827;53.594;9.938;2023-04-15T05:39:32;51.30;;;29.43;;
15451;SDS011;7827;53.594;9.938;2023-04-15T05:42:00;48.87;;;27.23;;
15451;SDS011;7827;53.594;9.938;2023-04-15T05:44:28;53.03;;;29.80;;
15451;SDS011;7827;53.594;9.938;2023-04-15T05:46:57;51.60;;;28.50;;
15451;SDS011;7827;53.594;9.938;2023-04-15T05:49:25;55.03;;;29.60;;
15451;SDS011;7827;53.594;9.938;2023-04-15T05:51:55;50.63;;;29.10;;
15451;SDS011;7827;53.594;9.938;2023-04-15T05:54:23;51.93;;;28.63;;
15451;SDS011;7827;53.594;9.938;2023-04-15T05:56:53;50.90;;;28.03;;
15451;SDS011;7827;53.594;9.938;2023-04-15T05:59:21;49.27;;;29.10;;
15451;SDS011;7827;53.594;9.938;2023-04-15T06:01:50;50.27;;;29.63;;
15451;SDS011;7827;53.594;9.938;2023-04-15T06:04:19;55.73;;;30.43;;
15451;SDS011;7827;53.594;9.938;2023-04-15T06:06:48;48.53;;;29.20;;
15451;SDS011;7827;53.594;9.938;2023-04-15T06:09:18;54.70;;;29.83;;
15451;SDS011;7827;53.594;9.938;2023-04-15T06:11:46;46.50;;;29.37;;
15451;SDS011;7827;53.594;9.938;2023-04-15T06:14:14;53.70;;;31.87;;
15451;SDS011;7827;53.594;9.938;2023-04-15T06:16:43;53.87;;;32.50;;
15451;SDS011;7827;53.594;9.938;2023-04-15T06:19:11;50.23;;;31.10;;
15451;SDS011;7827;53.594;9.938;2023-04-15T06:21:40;56.17;;;32.40;;
15451;SDS011;7827;53.594;9.938;2023-04-15T06:24:08;60.30;;;33.03;;
15451;SDS011;7827;53.594;9.938;2023-04-15T06:26:39;56.50;;;33.57;;
15451;SDS011;7827;53.594;9.938;2023-04-15T06:29:07;58.63;;;34.17;;
15451;SDS011;7827;53.594;9.938;2023-04-15T06:31:35;62.13;;;35.17;;
15451;SDS011;7827;53.594;9.938;2023-04-15T06:34:04;59.10;;;34.73;;
15451;SDS011;7827;53.594;9.938;2023-04-15T06:36:32;71.70;;;35.57;;
15451;SDS011;7827;53.594;9.938;2023-04-15T06:39:01;58.60;;;35.07;;
15451;SDS011;7827;53.594;9.938;2023-04-15T06:41:29;57.37;;;33.93;;
15451;SDS011;7827;53.594;9.938;2023-04-15T06:43:59;63.07;;;35.60;;
15451;SDS011;7827;53.594;9.938;2023-04-15T06:46:28;57.65;;;34.35;;
15451;SDS011;7827;53.594;9.938;2023-04-15T06:48:56;63.50;;;38.07;;
15451;SDS011;7827;53.594;9.938;2023-04-15T06:51:25;65.57;;;39.07;;
15451;SDS011;7827;53.594;9.938;2023-04-15T06:53:53;67.97;;;37.53;;
15451;SDS011;7827;53.594;9.938;2023-04-15T06:56:22;66.90;;;37.92;;
15451;SDS011;7827;53.594;9.938;2023-04-15T06:58:50;62.37;;;37.60;;
15451;SDS011;7827;53.594;9.938;2023-04-15T07:01:20;64.63;;;38.47;;
15451;SDS011;7827;53.594;9.938;2023-04-15T07:03:49;72.70;;;40.40;;
15451;SDS011;7827;53.594;9.938;2023-04-15T07:06:17;72.07;;;40.33;;
15451;SDS011;7827;53.594;9.938;2023-04-15T07:08:47;70.25;;;41.28;;
15451;SDS011;7827;53.594;9.938;2023-04-15T07:11:15;76.23;;;42.83;;
15451;SDS011;7827;53.594;9.938;2023-04-15T07:13:44;77.23;;;43.20;;
15451;SDS011;7827;53.594;9.938;2023-04-15T07:16:12;70.87;;;41.07;;
15451;SDS011;7827;53.594;9.938;2023-04-15T07:18:42;73.55;;;42.22;;
15451;SDS011;7827;53.594;9.938;2023-04-15T07:21:10;75.20;;;45.07;;
15451;SDS011;7827;53.594;9.938;2023-04-15T07:23:39;73.63;;;43.20;;
15451;SDS011;7827;53.594;9.938;2023-04-15T07:26:08;73.60;;;41.35;;
15451;SDS011;7827;53.594;9.938;2023-04-15T07:28:37;80.00;;;44.70;;
15451;SDS011;7827;53.594;9.938;2023-04-15T07:31:05;77.73;;;44.30;;
15451;SDS011;7827;53.594;9.938;2023-04-15T07:33:34;75.30;;;45.30;;
15451;SDS011;7827;53.594;9.938;2023-04-15T07:36:04;82.83;;;44.97;;
15451;SDS011;7827;53.594;9.938;2023-04-15T07:38:32;78.97;;;44.43;;
15451;SDS011;7827;53.594;9.938;2023-04-15T07:41:01;82.82;;;46.92;;
15451;SDS011;7827;53.594;9.938;2023-04-15T07:43:30;79.05;;;45.35;;
15451;SDS011;7827;53.594;9.938;2023-04-15T07:45:58;79.47;;;43.60;;
15451;SDS011;7827;53.594;9.938;2023-04-15T07:48:27;83.80;;;46.23;;
15451;SDS011;7827;53.594;9.938;2023-04-15T07:50:56;81.13;;;45.30;;
15451;SDS011;7827;53.594;9.938;2023-04-15T07:53:27;77.57;;;44.23;;
15451;SDS011;7827;53.594;9.938;2023-04-15T07:55:55;78.13;;;45.20;;
15451;SDS011;7827;53.594;9.938;2023-04-15T07:58:24;79.43;;;46.47;;
15451;SDS011;7827;53.594;9.938;2023-04-15T08:00:53;82.10;;;45.30;;
15451;SDS011;7827;53.594;9.938;2023-04-15T08:03:22;81.53;;;46.97;;
15451;SDS011;7827;53.594;9.938;2023-04-15T08:05:52;78.90;;;45.25;;
15451;SDS011;7827;53.594;9.938;2023-04-15T08:08:20;82.95;;;47.42;;
15451;SDS011;7827;53.594;9.938;2023-04-15T08:10:50;88.70;;;46.70;;
15451;SDS011;7827;53.594;9.938;2023-04-15T08:13:19;86.63;;;47.20;;
15451;SDS011;7827;53.594;9.938;2023-04-15T08:18:47;76.95;;;45.13;;
15451;SDS011;7827;53.594;9.938;2023-04-15T08:21:17;78.35;;;45.92;;
15451;SDS011;7827;53.594;9.938;2023-04-15T08:23:47;83.47;;;44.20;;
15451;SDS011;7827;53.594;9.938;2023-04-15T08:26:19;78.03;;;45.05;;
15451;SDS011;7827;53.594;9.938;2023-04-15T08:28:48;82.45;;;46.10;;
15451;SDS011;7827;53.594;9.938;2023-04-15T08:31:17;79.55;;;45.00;;
15451;SDS011;7827;53.594;9.938;2023-04-15T08:33:47;78.43;;;44.30;;
15451;SDS011;7827;53.594;9.938;2023-04-15T08:36:18;80.97;;;45.07;;
15451;SDS011;7827;53.594;9.938;2023-04-15T08:38:46;69.83;;;44.53;;
15451;SDS011;7827;53.594;9.938;2023-04-15T08:41:17;76.17;;;44.13;;
15451;SDS011;7827;53.594;9.938;2023-04-15T08:43:52;71.03;;;41.93;;
15451;SDS011;7827;53.594;9.938;2023-04-15T08:46:23;74.10;;;43.13;;
15451;SDS011;7827;53.594;9.938;2023-04-15T08:48:53;75.90;;;43.37;;
15451;SDS011;7827;53.594;9.938;2023-04-15T08:51:25;70.70;;;42.90;;
15451;SDS011;7827;53.594;9.938;2023-04-15T08:53:55;73.72;;;44.65;;
15451;SDS011;7827;53.594;9.938;2023-04-15T08:56:26;63.75;;;41.47;;
15451;SDS011;7827;53.594;9.938;2023-04-15T08:58:58;67.37;;;42.27;;
15451;SDS011;7827;53.594;9.938;2023-04-15T09:01:27;63.87;;;38.07;;
15451;SDS011;7827;53.594;9.938;2023-04-15T09:03:56;73.53;;;44.47;;
15451;SDS011;7827;53.594;9.938;2023-04-15T09:06:26;72.50;;;42.17;;
15451;SDS011;7827;53.594;9.938;2023-04-15T09:08:54;69.57;;;43.23;;
15451;SDS011;7827;53.594;9.938;2023-04-15T09:11:23;69.87;;;42.93;;
15451;SDS011;7827;53.594;9.938;2023-04-15T09:13:53;75.60;;;43.22;;
15451;SDS011;7827;53.594;9.938;2023-04-15T09:16:23;69.20;;;41.28;;
15451;SDS011;7827;53.594;9.938;2023-04-15T09:18:52;70.95;;;41.63;;
15451;SDS011;7827;53.594;9.938;2023-04-15T09:21:21;69.85;;;43.80;;
15451;SDS011;7827;53.594;9.938;2023-04-15T09:23:54;69.10;;;43.03;;
15451;SDS011;7827;53.594;9.938;2023-04-15T09:26:31;66.90;;;42.47;;
15451;SDS011;7827;53.594;9.938;2023-04-15T09:29:03;71.00;;;44.83;;
15451;SDS011;7827;53.594;9.938;2023-04-15T09:31:34;73.33;;;43.17;;
15451;SDS011;7827;53.594;9.938;2023-04-15T09:34:03;73.13;;;43.47;;
15451;SDS011;7827;53.594;9.938;2023-04-15T09:36:37;73.15;;;42.97;;
15451;SDS011;7827;53.594;9.938;2023-04-15T09:39:19;75.35;;;42.97;;
15451;SDS011;7827;53.594;9.938;2023-04-15T09:42:03;73.32;;;43.63;;
15451;SDS011;7827;53.594;9.938;2023-04-15T09:44:34;72.00;;;43.08;;
15451;SDS011;7827;53.594;9.938;2023-04-15T09:47:05;66.97;;;40.53;;
15451;SDS011;7827;53.594;9.938;2023-04-15T09:49:33;64.57;;;40.78;;
15451;SDS011;7827;53.594;9.938;2023-04-15T09:52:02;66.65;;;42.05;;
15451;SDS011;7827;53.594;9.938;2023-04-15T09:54:32;69.15;;;42.13;;
15451;SDS011;7827;53.594;9.938;2023-04-15T09:57:06;68.82;;;42.42;;
15451;SDS011;7827;53.594;9.938;2023-04-15T09:59:38;71.00;;;41.75;;
15451;SDS011;7827;53.594;9.938;2023-04-15T10:02:07;62.13;;;40.45;;
15451;SDS011;7827;53.594;9.938;2023-04-15T10:04:39;61.38;;;39.65;;
15451;SDS011;7827;53.594;9.938;2023-04-15T10:07:08;66.20;;;39.83;;
15451;SDS011;7827;53.594;9.938;2023-04-15T10:09:38;56.75;;;38.20;;
15451;SDS011;7827;53.594;9.938;2023-04-15T10:12:07;59.15;;;39.03;;
15451;SDS011;7827;53.594;9.938;2023-04-15T10:14:36;57.22;;;37.03;;
15451;SDS011;7827;53.594;9.938;2023-04-15T10:17:08;57.17;;;36.97;;
15451;SDS011;7827;53.594;9.938;2023-04-15T10:19:39;52.58;;;36.58;;
15451;SDS011;7827;53.594;9.938;2023-04-15T10:22:08;49.85;;;36.20;;
15451;SDS011;7827;53.594;9.938;2023-04-15T10:24:37;44.20;;;34.22;;
15451;SDS011;7827;53.594;9.938;2023-04-15T10:27:07;46.33;;;33.08;;
15451;SDS011;7827;53.594;9.938;2023-04-15T10:29:36;49.67;;;33.88;;
15451;SDS011;7827;53.594;9.938;2023-04-15T10:32:07;45.85;;;32.35;;
15451;SDS011;7827;53.594;9.938;2023-04-15T10:34:38;51.85;;;33.55;;
15451;SDS011;7827;53.594;9.938;2023-04-15T10:37:08;48.33;;;32.50;;
15451;SDS011;7827;53.594;9.938;2023-04-15T10:39:38;42.00;;;32.67;;
15451;SDS011;7827;53.594;9.938;2023-04-15T10:42:10;41.25;;;30.67;;
15451;SDS011;7827;53.594;9.938;2023-04-15T10:44:42;40.63;;;30.50;;
15451;SDS011;7827;53.594;9.938;2023-04-15T10:47:13;38.47;;;29.42;;
15451;SDS011;7827;53.594;9.938;2023-04-15T10:49:45;39.00;;;28.65;;
15451;SDS011;7827;53.594;9.938;2023-04-15T10:52:16;37.17;;;27.60;;
15451;SDS011;7827;53.594;9.938;2023-04-15T10:54:50;37.05;;;26.58;;
15451;SDS011;7827;53.594;9.938;2023-04-15T10:57:33;35.15;;;27.48;;
15451;SDS011;7827;53.594;9.938;2023-04-15T11:00:12;32.85;;;25.98;;
15451;SDS011;7827;53.594;9.938;2023-04-15T11:02:44;34.38;;;25.88;;
15451;SDS011;7827;53.594;9.938;2023-04-15T11:05:15;32.58;;;23.50;;
15451;SDS011;7827;53.594;9.938;2023-04-15T11:07:48;30.90;;;24.20;;
15451;SDS011;7827;53.594;9.938;2023-04-15T11:13:22;32.30;;;22.88;;
15451;SDS011;7827;53.594;9.938;2023-04-15T11:16:01;27.20;;;22.00;;
15451;SDS011;7827;53.594;9.938;2023-04-15T11:18:31;26.92;;;21.58;;
15451;SDS011;7827;53.594;9.938;2023-04-15T11:21:01;24.55;;;19.55;;
15451;SDS011;7827;53.594;9.938;2023-04-15T11:23:33;28.75;;;18.63;;
15451;SDS011;7827;53.594;9.938;2023-04-15T11:26:05;23.30;;;17.88;;
15451;SDS011;7827;53.594;9.938;2023-04-15T11:28:38;22.60;;;17.48;;
15451;SDS011;7827;53.594;9.938;2023-04-15T11:31:09;21.70;;;16.25;;
15451;SDS011;7827;53.594;9.938;2023-04-15T11:33:46;18.17;;;14.73;;
15451;SDS011;7827;53.594;9.938;2023-04-15T11:36:23;19.75;;;15.05;;
15451;SDS011;7827;53.594;9.938;2023-04-15T11:38:54;18.17;;;14.90;;
15451;SDS011;7827;53.594;9.938;2023-04-15T11:41:24;19.90;;;14.88;;
15451;SDS011;7827;53.594;9.938;2023-04-15T11:43:52;16.65;;;13.48;;
15451;SDS011;7827;53.594;9.938;2023-04-15T11:46:27;18.35;;;13.98;;
15451;SDS011;7827;53.594;9.938;2023-04-15T11:48:57;17.60;;;14.13;;
15451;SDS011;7827;53.594;9.938;2023-04-15T11:51:25;15.25;;;13.32;;
15451;SDS011;7827;53.594;9.938;2023-04-15T11:54:00;14.38;;;12.50;;
15451;SDS011;7827;53.594;9.938;2023-04-15T11:56:29;19.52;;;13.32;;
15451;SDS011;7827;53.594;9.938;2023-04-15T11:58:57;15.38;;;12.63;;
15451;SDS011;7827;53.594;9.938;2023-04-15T12:01:31;16.42;;;12.05;;
15451;SDS011;7827;53.594;9.938;2023-04-15T12:04:00;17.08;;;13.20;;
15451;SDS011;7827;53.594;9.938;2023-04-15T12:06:31;15.80;;;12.55;;
15451;SDS011;7827;53.594;9.938;2023-04-15T12:09:08;16.30;;;12.32;;
15451;SDS011;7827;53.594;9.938;2023-04-15T12:11:39;14.68;;;12.63;;
15451;SDS011;7827;53.594;9.938;2023-04-15T12:14:11;15.68;;;12.43;;
15451;SDS011;7827;53.594;9.938;2023-04-15T12:16:49;15.30;;;13.07;;
15451;SDS011;7827;53.594;9.938;2023-04-15T12:19:23;15.40;;;13.27;;
15451;SDS011;7827;53.594;9.938;2023-04-15T12:21:56;15.95;;;13.38;;
15451;SDS011;7827;53.594;9.938;2023-04-15T12:24:27;19.08;;;13.98;;
15451;SDS011;7827;53.594;9.938;2023-04-15T12:27:00;20.67;;;14.20;;
15451;SDS011;7827;53.594;9.938;2023-04-15T12:29:30;15.35;;;13.10;;
15451;SDS011;7827;53.594;9.938;2023-04-15T12:32:04;14.27;;;12.80;;
15451;SDS011;7827;53.594;9.938;2023-04-15T12:34:36;15.23;;;12.68;;
15451;SDS011;7827;53.594;9.938;2023-04-15T12:37:07;16.35;;;12.70;;
15451;SDS011;7827;53.594;9.938;2023-04-15T12:39:37;19.65;;;12.88;;
15451;SDS011;7827;53.594;9.938;2023-04-15T12:42:08;15.63;;;12.57;;
15451;SDS011;7827;53.594;9.938;2023-04-15T12:44:37;14.20;;;12.70;;
15451;SDS011;7827;53.594;9.938;2023-04-15T12:47:08;17.42;;;13.05;;
15451;SDS011;7827;53.594;9.938;2023-04-15T12:49:37;15.10;;;12.82;;
15451;SDS011;7827;53.594;9.938;2023-04-15T12:52:06;14.65;;;12.75;;
15451;SDS011;7827;53.594;9.938;2023-04-15T12:54:35;15.32;;;12.95;;
15451;SDS011;7827;53.594;9.938;2023-04-15T12:57:03;16.83;;;13.43;;
15451;SDS011;7827;53.594;9.938;2023-04-15T12:59:33;14.40;;;12.82;;
15451;SDS011;7827;53.594;9.938;2023-04-15T13:02:02;21.60;;;14.35;;
15451;SDS011;7827;53.594;9.938;2023-04-15T13:04:32;15.73;;;12.68;;
15451;SDS011;7827;53.594;9.938;2023-04-15T13:07:00;16.40;;;13.40;;
15451;SDS011;7827;53.594;9.938;2023-04-15T13:09:29;16.10;;;13.25;;
15451;SDS011;7827;53.594;9.938;2023-04-15T13:11:57;14.63;;;13.05;;
15451;SDS011;7827;53.594;9.938;2023-04-15T13:14:28;15.00;;;13.00;;
15451;SDS011;7827;53.594;9.938;2023-04-15T13:16:56;17.80;;;14.23;;
15451;SDS011;7827;53.594;9.938;2023-04-15T13:19:26;17.80;;;14.07;;
15451;SDS011;7827;53.594;9.938;2023-04-15T13:21:55;18.90;;;14.02;;
15451;SDS011;7827;53.594;9.938;2023-04-15T13:24:24;14.32;;;12.75;;
15451;SDS011;7827;53.594;9.938;2023-04-15T13:26:53;14.63;;;13.13;;
15451;SDS011;7827;53.594;9.938;2023-04-15T13:29:24;12.70;;;11.40;;
15451;SDS011;7827;53.594;9.938;2023-04-15T13:31:53;15.05;;;11.80;;
15451;SDS011;7827;53.594;9.938;2023-04-15T13:34:21;12.57;;;11.35;;
15451;SDS011;7827;53.594;9.938;2023-04-15T13:36:50;14.38;;;11.82;;
15451;SDS011;7827;53.594;9.938;2023-04-15T13:39:19;14.43;;;12.75;;
15451;SDS011;7827;53.594;9.938;2023-04-15T13:41:48;13.90;;;12.50;;
15451;SDS011;7827;53.594;9.938;2023-04-15T13:44:16;13.40;;;11.98;;
15451;SDS011;7827;53.594;9.938;2023-04-15T13:46:47;18.60;;;13.68;;
15451;SDS011;7827;53.594;9.938;2023-04-15T13:49:16;15.48;;;12.88;;
15451;SDS011;7827;53.594;9.938;2023-04-15T13:51:44;13.77;;;12.20;;
15451;SDS011;7827;53.594;9.938;2023-04-15T13:54:13;15.40;;;11.13;;
15451;SDS011;7827;53.594;9.938;2023-04-15T13:56:42;12.15;;;10.90;;
15451;SDS011;7827;53.594;9.938;2023-04-15T13:59:11;13.05;;;11.07;;
15451;SDS011;7827;53.594;9.938;2023-04-15T14:01:40;11.60;;;10.00;;
15451;SDS011;7827;53.594;9.938;2023-04-15T14:04:09;16.20;;;11.13;;
15451;SDS011;7827;53.594;9.938;2023-04-15T14:06:38;11.73;;;10.38;;
15451;SDS011;7827;53.594;9.938;2023-04-15T14:09:06;11.70;;;10.07;;
15451;SDS011;7827;53.594;9.938;2023-04-15T14:11:37;11.48;;;10.18;;
15451;SDS011;7827;53.594;9.938;2023-04-15T14:14:07;12.85;;;10.57;;
15451;SDS011;7827;53.594;9.938;2023-04-15T14:16:35;15.77;;;11.32;;
15451;SDS011;7827;53.594;9.938;2023-04-15T14:19:04;14.85;;;11.15;;
15451;SDS011;7827;53.594;9.938;2023-04-15T14:21:33;11.82;;;10.13;;
15451;SDS011;7827;53.594;9.938;2023-04-15T14:24:01;12.95;;;10.82;;
15451;SDS011;7827;53.594;9.938;2023-04-15T14:26:30;13.35;;;10.05;;
15451;SDS011;7827;53.594;9.938;2023-04-15T14:28:58;13.25;;;10.02;;
15451;SDS011;7827;53.594;9.938;2023-04-15T14:31:28;11.75;;;10.43;;
15451;SDS011;7827;53.594;9.938;2023-04-15T14:33:56;11.98;;;10.73;;
15451;SDS011;7827;53.594;9.938;2023-04-15T14:36:25;14.45;;;12.20;;
15451;SDS011;7827;53.594;9.938;2023-04-15T14:38:53;13.40;;;11.43;;
15451;SDS011;7827;53.594;9.938;2023-04-15T14:41:22;13.88;;;11.20;;
15451;SDS011;7827;53.594;9.938;2023-04-15T14:43:50;11.55;;;10.35;;
15451;SDS011;7827;53.594;9.938;2023-04-15T14:46:19;12.80;;;10.45;;
15451;SDS011;7827;53.594;9.938;2023-04-15T14:48:49;11.65;;;10.27;;
15451;SDS011;7827;53.594;9.938;2023-04-15T14:51:17;12.77;;;10.07;;
15451;SDS011;7827;53.594;9.938;2023-04-15T14:53:46;12.43;;;11.02;;
15451;SDS011;7827;53.594;9.938;2023-04-15T14:56:14;13.25;;;10.90;;
15451;SDS011;7827;53.594;9.938;2023-04-15T14:58:43;12.02;;;10.77;;